This is the latest recevied weather packets stored in our database for station/object IR4UCA. If no packets are shown the sender has not sent any weather packets the latest 10 day(s).
| Time | Temp. | Humidity | Pressure | Rain* | Wind** | Luminosity | Snow |
|---|---|---|---|---|---|---|---|
| 1777624188 | 13.89° C | 61% | 1028.1 hPa | 0 mm | - | - | - |
| 1777623585 | 13.89° C | 60% | 1028.1 hPa | 0 mm | - | - | - |
| 1777622984 | 13.33° C | 60% | 1028.1 hPa | 0 mm | - | - | - |
| 1777622387 | 12.78° C | 61% | 1028 hPa | 0 mm | - | - | - |
| 1777621785 | 12.78° C | 64% | 1027.8 hPa | 0 mm | - | - | - |
| 1777621184 | 12.22° C | 63% | 1027.9 hPa | 0 mm | - | - | - |
| 1777619984 | 11.11° C | 68% | 1027.8 hPa | 0 mm | - | - | - |
| 1777618184 | 9.44° C | 72% | 1027.6 hPa | 0 mm | - | - | - |
| 1777617584 | 8.89° C | 73% | 1027.4 hPa | 0 mm | - | - | - |
| 1777616984 | 8.33° C | 74% | 1027.4 hPa | 0 mm | - | - | - |
| 1777616384 | 7.78° C | 76% | 1027.4 hPa | 0 mm | - | - | - |
| 1777615785 | 7.22° C | 77% | 1027.3 hPa | 0 mm | - | - | - |
| 1777615185 | 6.67° C | 79% | 1027.3 hPa | 0 mm | - | - | - |
| 1777614584 | 6.67° C | 78% | 1027.2 hPa | 0 mm | - | - | - |
| 1777613984 | 6.11° C | 79% | 1027.1 hPa | 0 mm | - | - | - |
| 1777613384 | 6.11° C | 79% | 1027.1 hPa | 0 mm | - | - | - |
| 1777612784 | 6.11° C | 79% | 1027.1 hPa | 0 mm | - | - | - |
| 1777612184 | 6.11° C | 77% | 1027.1 hPa | 0 mm | - | - | - |
| 1777611584 | 6.67° C | 76% | 1026.9 hPa | 0 mm | - | - | - |
| 1777610985 | 6.67° C | 76% | 1026.7 hPa | 0 mm | - | - | - |
| 1777610384 | 6.67° C | 75% | 1026.5 hPa | 0 mm | - | - | - |
| 1777609784 | 6.67° C | 75% | 1026.5 hPa | 0 mm | - | - | - |
| 1777582783 | 11.67° C | 58% | 1025.4 hPa | 0 mm | - | - | - |
| 1777582183 | 12.22° C | 57% | 1025.3 hPa | 0 mm | - | - | - |
| 1777581584 | 12.78° C | 53% | 1025.3 hPa | 0 mm | - | - | - |
* Rain latest hour (hover to see other rain measurements)
** Current wind speed in m/s (hover to see current wind gust speed)